createdAt,value
2022-12-01T00:00:32.427Z,0.23
2022-12-01T00:04:09.817Z,0.24
2022-12-01T00:07:49.755Z,0.25
2022-12-01T00:11:25.217Z,0.25
2022-12-01T00:15:03.145Z,0.26
2022-12-01T00:18:41.051Z,0.28
2022-12-01T00:22:18.315Z,0.29
2022-12-01T00:26:02.902Z,0.29
2022-12-01T00:29:33.754Z,0.30
2022-12-01T00:33:11.664Z,0.31
2022-12-01T00:36:49.776Z,0.29
2022-12-01T00:40:26.866Z,0.28
2022-12-01T00:44:05.184Z,0.28
2022-12-01T00:47:42.278Z,0.27
2022-12-01T00:51:19.978Z,0.24
2022-12-01T00:54:57.685Z,0.21
2022-12-01T00:58:35.387Z,0.19
2022-12-01T01:02:13.736Z,0.20
2022-12-01T01:05:50.694Z,0.20
2022-12-01T01:09:28.705Z,0.20
2022-12-01T01:13:06.408Z,0.20
2022-12-01T01:16:43.924Z,0.21
2022-12-01T01:20:21.713Z,0.20
2022-12-01T01:23:59.417Z,0.20
2022-12-01T01:27:36.918Z,0.20
2022-12-01T01:31:18.604Z,0.21
2022-12-01T01:34:52.326Z,0.22
2022-12-01T01:38:30.439Z,0.22
2022-12-01T01:42:13.059Z,0.23
2022-12-01T01:45:45.484Z,0.24
2022-12-01T01:49:23.245Z,0.28
2022-12-01T01:53:10.978Z,0.29
2022-12-01T01:56:38.551Z,0.29
2022-12-01T02:00:19.631Z,0.30
2022-12-01T02:03:55.034Z,0.31
2022-12-01T02:07:32.319Z,0.30
2022-12-01T02:11:48.695Z,0.31
2022-12-01T02:15:17.996Z,0.31
2022-12-01T02:18:52.237Z,0.32
2022-12-01T02:22:30.229Z,0.33
2022-12-01T02:26:01.742Z,0.35
2022-12-01T02:29:39.085Z,0.35
2022-12-01T02:33:19.350Z,0.34
2022-12-01T02:36:58.592Z,0.34
2022-12-01T02:40:36.191Z,0.36
2022-12-01T02:44:11.849Z,0.37
2022-12-01T02:47:41.461Z,0.39
2022-12-01T02:51:24.689Z,0.39
2022-12-01T02:54:54.731Z,0.37
2022-12-01T02:58:31.913Z,0.35
2022-12-01T03:02:33.677Z,0.36
2022-12-01T03:06:14.661Z,0.37
2022-12-01T03:09:56.152Z,0.37
2022-12-01T03:13:29.704Z,0.36
2022-12-01T03:16:44.353Z,0.35
2022-12-01T03:20:28.981Z,0.35
2022-12-01T03:24:09.235Z,0.35
2022-12-01T03:28:00.656Z,0.35
2022-12-01T03:31:20.278Z,0.37
2022-12-01T03:34:58.834Z,0.38
2022-12-01T03:38:33.568Z,0.39
2022-12-01T03:42:40.610Z,0.39
2022-12-01T03:46:07.865Z,0.41
2022-12-01T03:49:29.192Z,0.43
2022-12-01T03:53:19.515Z,0.44
2022-12-01T03:56:49.411Z,0.45
2022-12-01T04:00:23.008Z,0.46
2022-12-01T04:04:12.701Z,0.48
2022-12-01T04:07:39.491Z,0.48
2022-12-01T04:11:33.449Z,0.47
2022-12-01T04:14:52.606Z,0.47
2022-12-01T04:18:30.312Z,0.46
2022-12-01T04:22:07.913Z,0.48
2022-12-01T04:25:45.475Z,0.48
2022-12-01T04:29:23.525Z,0.49
2022-12-01T04:33:01.028Z,0.50
2022-12-01T04:36:38.730Z,0.51
2022-12-01T04:40:16.639Z,0.52
2022-12-01T04:43:54.856Z,0.53
2022-12-01T04:47:32.047Z,0.54
2022-12-01T04:51:09.852Z,0.53
2022-12-01T04:54:47.251Z,0.55
2022-12-01T04:58:24.966Z,0.55
2022-12-01T05:02:04.382Z,0.56
2022-12-01T05:05:40.181Z,0.60
2022-12-01T05:09:20.115Z,0.62
2022-12-01T05:12:57.921Z,0.67
2022-12-01T05:16:34.300Z,0.68
2022-12-01T05:20:38.835Z,0.67
2022-12-01T05:23:49.192Z,0.67
2022-12-01T05:27:26.793Z,0.66
2022-12-01T05:31:04.748Z,0.66
2022-12-01T05:34:42.200Z,0.65
2022-12-01T05:38:20.828Z,0.66
2022-12-01T05:41:57.712Z,0.68
2022-12-01T05:45:36.179Z,0.70
2022-12-01T05:49:13.017Z,0.71
2022-12-01T05:52:50.825Z,0.74
2022-12-01T05:56:28.380Z,0.74
2022-12-01T06:00:07.257Z,0.76
2022-12-01T06:03:43.903Z,0.76
2022-12-01T06:07:23.596Z,0.76
2022-12-01T06:10:59.242Z,0.78
2022-12-01T06:14:36.948Z,0.79
2022-12-01T06:18:14.548Z,0.83
2022-12-01T06:21:54.711Z,0.84
2022-12-01T06:25:30.062Z,0.84
2022-12-01T06:29:07.765Z,0.82
2022-12-01T06:32:45.366Z,0.82
2022-12-01T06:36:23.069Z,0.82
2022-12-01T06:40:01.295Z,0.84
2022-12-01T06:43:38.791Z,0.84
2022-12-01T06:47:16.181Z,0.87
2022-12-01T06:51:00.192Z,0.90
2022-12-01T06:54:31.692Z,0.91
2022-12-01T06:58:09.191Z,0.95
2022-12-01T07:01:47.162Z,0.96
2022-12-01T07:05:24.703Z,0.98
2022-12-01T07:09:02.924Z,0.99
2022-12-01T07:12:40.931Z,0.99
2022-12-01T07:16:17.864Z,0.97
2022-12-01T07:19:55.726Z,0.97
2022-12-01T07:23:33.838Z,1.01
2022-12-01T07:27:10.930Z,1.06
2022-12-01T07:30:48.776Z,1.09
2022-12-01T07:34:26.297Z,1.11
2022-12-01T07:38:04.041Z,1.13
2022-12-01T07:41:41.642Z,1.14
2022-12-01T07:45:19.347Z,1.15
2022-12-01T07:48:58.456Z,1.15
2022-12-01T07:52:34.753Z,1.16
2022-12-01T07:56:14.347Z,1.15
2022-12-01T07:59:50.837Z,1.13
2022-12-01T08:03:27.868Z,1.12
2022-12-01T08:07:05.469Z,1.11
2022-12-01T08:10:43.172Z,1.10
2022-12-01T08:14:20.979Z,1.12
2022-12-01T08:18:01.039Z,1.12
2022-12-01T08:21:37.737Z,1.12
2022-12-01T08:25:14.502Z,1.14
2022-12-01T08:28:51.898Z,1.15
2022-12-01T08:32:29.910Z,1.15
2022-12-01T08:36:08.054Z,1.14
2022-12-01T08:39:44.807Z,1.15
2022-12-01T08:43:49.467Z,1.16
2022-12-01T08:47:00.102Z,1.18
2022-12-01T08:50:37.853Z,1.18
2022-12-01T08:54:16.750Z,1.22
2022-12-01T08:57:53.226Z,1.24
2022-12-01T09:01:32.747Z,1.26
2022-12-01T09:05:09.045Z,1.28
2022-12-01T09:08:47.114Z,1.31
2022-12-01T09:12:24.144Z,1.35
2022-12-01T09:16:07.046Z,1.39
2022-12-01T09:19:39.653Z,1.45
2022-12-01T09:23:17.255Z,1.49
2022-12-01T09:26:56.700Z,1.53
2022-12-01T09:30:40.011Z,1.56
2022-12-01T09:34:17.945Z,1.60
2022-12-01T09:37:48.072Z,1.62
2022-12-01T09:41:30.180Z,1.62
2022-12-01T09:45:05.149Z,1.62
2022-12-01T09:48:46.303Z,1.66
2022-12-01T09:52:27.838Z,1.67
2022-12-01T09:56:04.859Z,1.68
2022-12-01T09:59:41.724Z,1.94
2022-12-01T10:03:30.638Z,2.01
2022-12-01T10:06:57.350Z,1.94
2022-12-01T10:10:36.215Z,1.89
2022-12-01T10:14:19.457Z,1.87
2022-12-01T10:17:42.717Z,1.86
2022-12-01T10:21:22.984Z,1.84
2022-12-01T10:25:11.434Z,1.85
2022-12-01T10:29:02.864Z,1.84
2022-12-01T10:32:23.566Z,1.83
2022-12-01T10:35:51.717Z,1.86
2022-12-01T10:39:37.492Z,1.88
2022-12-01T10:43:10.234Z,1.89
2022-12-01T10:46:50.287Z,1.91
2022-12-01T10:50:30.761Z,1.92
2022-12-01T10:54:08.072Z,1.92
2022-12-01T10:57:37.872Z,1.93
2022-12-01T11:01:24.001Z,1.96
2022-12-01T11:04:57.888Z,1.96
2022-12-01T11:08:41.662Z,1.95
2022-12-01T11:12:16.369Z,1.92
2022-12-01T11:16:00.034Z,1.90
2022-12-01T11:19:28.785Z,1.90
2022-12-01T11:23:10.298Z,1.92
2022-12-01T11:26:38.993Z,1.93
2022-12-01T11:30:31.647Z,1.90
2022-12-01T11:33:56.342Z,1.88
2022-12-01T11:41:28.957Z,1.89
2022-12-01T11:45:22.536Z,1.92
2022-12-01T11:48:37.394Z,1.92
2022-12-01T11:52:28.110Z,1.92
2022-12-01T11:55:47.998Z,1.91
2022-12-01T11:59:29.390Z,2.05
2022-12-01T12:03:34.189Z,2.70
2022-12-01T12:07:15.619Z,3.19
2022-12-01T12:10:51.925Z,3.21
2022-12-01T12:14:28.979Z,3.00
2022-12-01T12:17:57.077Z,2.81
2022-12-01T12:21:39.064Z,2.61
2022-12-01T12:25:11.754Z,2.49
2022-12-01T12:28:57.337Z,2.37
2022-12-01T12:32:33.932Z,2.30
2022-12-01T12:36:19.505Z,2.26
2022-12-01T12:39:42.780Z,2.25
2022-12-01T12:43:39.219Z,2.23
2022-12-01T12:47:04.630Z,2.18
2022-12-01T12:50:45.100Z,2.16
2022-12-01T12:54:21.097Z,2.13
2022-12-01T12:57:55.168Z,2.12
2022-12-01T13:01:37.007Z,2.10
2022-12-01T13:05:16.632Z,2.07
2022-12-01T13:08:41.997Z,2.07
2022-12-01T13:12:25.080Z,2.07
2022-12-01T13:15:54.730Z,2.08
2022-12-01T13:19:33.658Z,2.08
2022-12-01T13:23:14.912Z,2.10
2022-12-01T13:26:48.935Z,2.09
2022-12-01T13:30:26.329Z,2.10
2022-12-01T13:34:02.682Z,2.12
2022-12-01T13:37:39.075Z,2.14
2022-12-01T13:41:39.617Z,2.15
2022-12-01T13:44:59.841Z,2.16
2022-12-01T13:48:52.154Z,2.16
2022-12-01T13:52:23.514Z,2.15
2022-12-01T13:56:04.124Z,2.14
2022-12-01T14:00:03.394Z,2.13
2022-12-01T14:03:22.398Z,2.11
2022-12-01T14:07:15.822Z,2.09
2022-12-01T14:10:38.073Z,2.09
2022-12-01T14:14:25.963Z,2.07
2022-12-01T14:18:20.105Z,2.08
2022-12-01T14:22:04.568Z,2.09
2022-12-01T14:25:23.539Z,2.09
2022-12-01T14:28:54.993Z,2.09
2022-12-01T14:32:29.929Z,2.11
2022-12-01T14:36:34.258Z,2.11
2022-12-01T14:39:52.145Z,2.13
2022-12-01T14:43:45.664Z,2.14
2022-12-01T14:47:11.191Z,2.15
2022-12-01T14:50:49.525Z,2.14
2022-12-01T14:54:26.252Z,2.12
2022-12-01T14:58:04.508Z,2.13
2022-12-01T15:01:36.273Z,2.14
2022-12-01T15:05:19.612Z,2.11
2022-12-01T15:09:31.453Z,2.11
2022-12-01T15:12:34.035Z,2.12
2022-12-01T15:16:19.326Z,2.12
2022-12-01T15:19:52.214Z,2.12
2022-12-01T15:23:28.171Z,2.12
2022-12-01T15:27:24.267Z,2.09
2022-12-01T15:30:45.589Z,2.13
2022-12-01T15:34:24.562Z,2.18
2022-12-01T15:37:59.562Z,2.15
2022-12-01T15:41:39.825Z,2.15
2022-12-01T15:45:22.138Z,2.14
2022-12-01T15:49:07.027Z,2.13
2022-12-01T15:52:29.559Z,2.19
2022-12-01T15:56:10.042Z,2.24
2022-12-01T15:59:47.120Z,2.20
2022-12-01T16:03:22.169Z,2.14
2022-12-01T16:07:04.677Z,2.11
2022-12-01T16:10:37.778Z,2.08
2022-12-01T16:14:24.868Z,2.07
2022-12-01T16:17:54.103Z,2.17
2022-12-01T16:21:44.606Z,2.34
2022-12-01T16:25:22.094Z,2.46
2022-12-01T16:28:45.782Z,2.60
2022-12-01T16:32:42.335Z,2.80
2022-12-01T16:36:03.749Z,2.94
2022-12-01T16:39:39.303Z,3.10
2022-12-01T16:43:22.396Z,3.58
2022-12-01T16:46:54.220Z,3.97
2022-12-01T16:50:31.940Z,3.96
2022-12-01T16:54:10.511Z,3.66
2022-12-01T16:57:47.969Z,3.33
2022-12-01T17:01:25.694Z,3.07
2022-12-01T17:05:02.822Z,2.85
2022-12-01T17:08:40.938Z,2.64
2022-12-01T17:12:18.230Z,2.49
2022-12-01T17:15:56.499Z,2.37
2022-12-01T17:19:33.639Z,2.31
2022-12-01T17:23:11.956Z,2.24
2022-12-01T17:26:49.290Z,2.17
2022-12-01T17:30:27.660Z,2.11
2022-12-01T17:34:04.353Z,2.07
2022-12-01T17:37:44.109Z,2.04
2022-12-01T17:44:22.653Z,2.01
2022-12-01T17:48:00.019Z,1.98
2022-12-01T17:51:56.543Z,1.95
2022-12-01T17:55:26.206Z,1.91
2022-12-01T17:59:03.706Z,1.90
2022-12-01T18:02:41.571Z,1.89
2022-12-01T18:06:20.141Z,1.90
2022-12-01T18:09:56.920Z,1.89
2022-12-01T18:14:06.539Z,1.89
2022-12-01T18:17:52.369Z,1.91
2022-12-01T18:21:29.642Z,1.91
2022-12-01T18:25:08.738Z,1.93
2022-12-01T18:28:45.081Z,1.93
2022-12-01T18:32:22.470Z,1.94
2022-12-01T18:36:00.482Z,1.96
2022-12-01T18:39:38.595Z,1.96
2022-12-01T18:43:15.683Z,1.97
2022-12-01T18:46:53.277Z,1.96
2022-12-01T18:50:31.429Z,1.93
2022-12-01T18:54:12.790Z,1.90
2022-12-01T18:57:46.294Z,1.88
2022-12-01T19:01:53.585Z,1.88
2022-12-01T19:05:24.845Z,1.87
2022-12-01T19:09:04.996Z,1.87
2022-12-01T19:12:41.247Z,1.86
2022-12-01T19:16:20.103Z,1.85
2022-12-01T19:19:54.844Z,1.83
2022-12-01T19:23:33.264Z,1.82
2022-12-01T19:27:10.354Z,1.83
2022-12-01T19:30:48.443Z,1.83
2022-12-01T19:34:26.171Z,1.84
2022-12-01T19:38:03.471Z,1.85
2022-12-01T19:41:41.178Z,1.87
2022-12-01T19:45:18.672Z,1.88
2022-12-01T19:49:01.370Z,1.88
2022-12-01T19:52:36.227Z,1.88
2022-12-01T19:56:12.324Z,1.86
2022-12-01T19:59:49.412Z,1.85
2022-12-01T20:03:27.193Z,1.84
2022-12-01T20:07:05.306Z,1.84
2022-12-01T20:10:49.118Z,1.82
2022-12-01T20:14:20.304Z,1.79
2022-12-01T20:17:58.009Z,1.77
2022-12-01T20:21:42.353Z,1.74
2022-12-01T20:25:13.517Z,1.71
2022-12-01T20:28:52.654Z,1.69
2022-12-01T20:32:29.438Z,1.70
2022-12-01T20:36:08.168Z,1.70
2022-12-01T20:39:44.441Z,1.70
2022-12-01T20:43:21.938Z,1.71
2022-12-01T20:46:59.845Z,1.74
2022-12-01T20:50:38.619Z,1.75
2022-12-01T20:54:32.460Z,1.75
2022-12-01T20:58:05.939Z,1.78
2022-12-01T21:01:40.927Z,1.78
2022-12-01T21:05:18.506Z,1.79
2022-12-01T21:08:56.516Z,1.78
2022-12-01T21:12:53.882Z,1.75
2022-12-01T21:17:43.172Z,1.72
2022-12-01T21:21:31.770Z,1.71
2022-12-01T21:25:23.052Z,1.72
2022-12-01T21:29:23.349Z,1.70
2022-12-01T21:33:28.497Z,1.69
2022-12-01T21:37:24.532Z,1.66
2022-12-01T21:41:26.934Z,1.63
2022-12-01T21:45:17.725Z,1.62
2022-12-01T21:49:01.266Z,1.62
2022-12-01T21:52:46.138Z,1.63
2022-12-01T21:56:31.781Z,1.64
2022-12-01T22:02:49.127Z,1.72
2022-12-01T22:06:39.476Z,2.42
2022-12-01T22:10:59.061Z,2.72
2022-12-01T22:14:41.588Z,2.54
2022-12-01T22:18:29.729Z,2.37
2022-12-01T22:22:18.423Z,2.22
2022-12-01T22:26:01.317Z,2.05
2022-12-01T22:29:46.292Z,1.87
2022-12-01T22:33:29.729Z,1.75
2022-12-01T22:37:25.047Z,1.69
2022-12-01T22:41:13.696Z,1.64
2022-12-01T22:44:59.808Z,1.59
2022-12-01T22:48:49.186Z,1.53
2022-12-01T22:52:31.091Z,1.50
2022-12-01T22:56:39.922Z,1.46
2022-12-01T23:00:23.568Z,1.45
2022-12-01T23:04:28.407Z,1.46
2022-12-01T23:08:16.133Z,1.45
2022-12-01T23:12:10.744Z,1.42
2022-12-01T23:15:56.351Z,1.40
2022-12-01T23:19:38.885Z,1.38
2022-12-01T23:23:27.309Z,1.31
2022-12-01T23:27:09.827Z,1.24
2022-12-01T23:30:57.015Z,1.20
2022-12-01T23:34:39.571Z,1.20
2022-12-01T23:38:29.459Z,1.21
2022-12-01T23:42:12.753Z,1.23
2022-12-01T23:46:07.802Z,1.24
2022-12-01T23:49:59.843Z,1.24
2022-12-01T23:53:43.079Z,1.25
2022-12-01T23:57:25.338Z,1.27
